sensor_id;sensor_type;location;lat;lon;timestamp;P1;durP1;ratioP1;P2;durP2;ratioP2
56083;SDS011;41958;52.416;13.428;2022-07-25T00:01:37;2.33;;;1.42;;
56083;SDS011;41958;52.416;13.428;2022-07-25T00:04:02;2.35;;;1.60;;
56083;SDS011;41958;52.416;13.428;2022-07-25T00:06:28;1.85;;;1.75;;
56083;SDS011;41958;52.416;13.428;2022-07-25T00:08:53;2.90;;;1.60;;
56083;SDS011;41958;52.416;13.428;2022-07-25T00:11:18;1.98;;;1.75;;
56083;SDS011;41958;52.416;13.428;2022-07-25T00:13:44;2.55;;;1.30;;
56083;SDS011;41958;52.416;13.428;2022-07-25T00:16:09;3.28;;;1.63;;
56083;SDS011;41958;52.416;13.428;2022-07-25T00:18:34;1.67;;;1.58;;
56083;SDS011;41958;52.416;13.428;2022-07-25T00:20:59;3.40;;;1.60;;
56083;SDS011;41958;52.416;13.428;2022-07-25T00:23:25;1.58;;;1.48;;
56083;SDS011;41958;52.416;13.428;2022-07-25T00:25:50;1.85;;;1.70;;
56083;SDS011;41958;52.416;13.428;2022-07-25T00:28:15;1.88;;;1.60;;
56083;SDS011;41958;52.416;13.428;2022-07-25T00:30:40;1.95;;;1.58;;
56083;SDS011;41958;52.416;13.428;2022-07-25T00:33:06;1.67;;;1.58;;
56083;SDS011;41958;52.416;13.428;2022-07-25T00:35:31;1.95;;;1.58;;
56083;SDS011;41958;52.416;13.428;2022-07-25T00:37:56;1.70;;;1.60;;
56083;SDS011;41958;52.416;13.428;2022-07-25T00:40:21;1.70;;;1.60;;
56083;SDS011;41958;52.416;13.428;2022-07-25T00:42:47;1.63;;;1.52;;
56083;SDS011;41958;52.416;13.428;2022-07-25T00:45:12;1.83;;;1.73;;
56083;SDS011;41958;52.416;13.428;2022-07-25T00:47:37;1.73;;;1.63;;
56083;SDS011;41958;52.416;13.428;2022-07-25T00:50:03;1.63;;;1.52;;
56083;SDS011;41958;52.416;13.428;2022-07-25T00:52:30;1.75;;;1.65;;
56083;SDS011;41958;52.416;13.428;2022-07-25T00:54:55;2.45;;;1.42;;
56083;SDS011;41958;52.416;13.428;2022-07-25T00:57:21;2.40;;;1.85;;
56083;SDS011;41958;52.416;13.428;2022-07-25T00:59:46;2.60;;;1.70;;
56083;SDS011;41958;52.416;13.428;2022-07-25T01:02:12;1.60;;;1.50;;
56083;SDS011;41958;52.416;13.428;2022-07-25T01:04:37;2.28;;;1.67;;
56083;SDS011;41958;52.416;13.428;2022-07-25T01:07:02;2.63;;;1.83;;
56083;SDS011;41958;52.416;13.428;2022-07-25T01:09:28;1.98;;;1.75;;
56083;SDS011;41958;52.416;13.428;2022-07-25T01:11:53;2.15;;;1.58;;
56083;SDS011;41958;52.416;13.428;2022-07-25T01:14:18;1.73;;;1.63;;
56083;SDS011;41958;52.416;13.428;2022-07-25T01:16:45;1.90;;;1.77;;
56083;SDS011;41958;52.416;13.428;2022-07-25T01:19:11;1.65;;;1.55;;
56083;SDS011;41958;52.416;13.428;2022-07-25T01:21:36;1.55;;;1.45;;
56083;SDS011;41958;52.416;13.428;2022-07-25T01:24:04;2.00;;;1.83;;
56083;SDS011;41958;52.416;13.428;2022-07-25T01:26:30;2.10;;;1.30;;
56083;SDS011;41958;52.416;13.428;2022-07-25T01:28:55;1.75;;;1.65;;
56083;SDS011;41958;52.416;13.428;2022-07-25T01:31:21;2.35;;;1.67;;
56083;SDS011;41958;52.416;13.428;2022-07-25T01:33:46;2.17;;;1.70;;
56083;SDS011;41958;52.416;13.428;2022-07-25T01:36:11;1.48;;;1.38;;
56083;SDS011;41958;52.416;13.428;2022-07-25T01:38:37;1.65;;;1.50;;
56083;SDS011;41958;52.416;13.428;2022-07-25T01:41:02;2.33;;;1.60;;
56083;SDS011;41958;52.416;13.428;2022-07-25T01:43:27;1.73;;;1.60;;
56083;SDS011;41958;52.416;13.428;2022-07-25T01:45:52;2.80;;;1.55;;
56083;SDS011;41958;52.416;13.428;2022-07-25T01:48:18;1.90;;;1.63;;
56083;SDS011;41958;52.416;13.428;2022-07-25T01:50:43;2.45;;;1.60;;
56083;SDS011;41958;52.416;13.428;2022-07-25T01:53:08;1.55;;;1.45;;
56083;SDS011;41958;52.416;13.428;2022-07-25T01:55:33;1.88;;;1.45;;
56083;SDS011;41958;52.416;13.428;2022-07-25T01:57:59;1.63;;;1.52;;
56083;SDS011;41958;52.416;13.428;2022-07-25T02:00:24;1.75;;;1.58;;
56083;SDS011;41958;52.416;13.428;2022-07-25T02:02:49;1.50;;;1.40;;
56083;SDS011;41958;52.416;13.428;2022-07-25T02:05:34;2.33;;;1.77;;
56083;SDS011;41958;52.416;13.428;2022-07-25T02:08:00;2.40;;;1.52;;
56083;SDS011;41958;52.416;13.428;2022-07-25T02:10:25;2.78;;;1.73;;
56083;SDS011;41958;52.416;13.428;2022-07-25T02:12:50;1.75;;;1.65;;
56083;SDS011;41958;52.416;13.428;2022-07-25T02:15:15;1.50;;;1.40;;
56083;SDS011;41958;52.416;13.428;2022-07-25T02:17:41;2.17;;;1.63;;
56083;SDS011;41958;52.416;13.428;2022-07-25T02:20:06;1.63;;;1.52;;
56083;SDS011;41958;52.416;13.428;2022-07-25T02:22:32;3.10;;;1.60;;
56083;SDS011;41958;52.416;13.428;2022-07-25T02:24:57;2.13;;;1.70;;
56083;SDS011;41958;52.416;13.428;2022-07-25T02:27:22;1.85;;;1.73;;
56083;SDS011;41958;52.416;13.428;2022-07-25T02:29:47;2.08;;;1.80;;
56083;SDS011;41958;52.416;13.428;2022-07-25T02:32:13;2.33;;;1.42;;
56083;SDS011;41958;52.416;13.428;2022-07-25T02:34:38;1.60;;;1.50;;
56083;SDS011;41958;52.416;13.428;2022-07-25T02:37:03;1.70;;;1.50;;
56083;SDS011;41958;52.416;13.428;2022-07-25T02:39:28;3.47;;;1.60;;
56083;SDS011;41958;52.416;13.428;2022-07-25T02:41:54;2.13;;;1.48;;
56083;SDS011;41958;52.416;13.428;2022-07-25T02:44:19;2.55;;;1.65;;
56083;SDS011;41958;52.416;13.428;2022-07-25T02:46:44;2.10;;;1.70;;
56083;SDS011;41958;52.416;13.428;2022-07-25T02:49:09;1.63;;;1.52;;
56083;SDS011;41958;52.416;13.428;2022-07-25T02:51:34;2.13;;;1.85;;
56083;SDS011;41958;52.416;13.428;2022-07-25T02:54:00;1.90;;;1.60;;
56083;SDS011;41958;52.416;13.428;2022-07-25T02:56:25;2.35;;;1.70;;
56083;SDS011;41958;52.416;13.428;2022-07-25T02:58:51;2.65;;;1.40;;
56083;SDS011;41958;52.416;13.428;2022-07-25T03:01:16;2.50;;;1.50;;
56083;SDS011;41958;52.416;13.428;2022-07-25T03:03:41;1.48;;;1.38;;
56083;SDS011;41958;52.416;13.428;2022-07-25T03:06:06;3.65;;;1.67;;
56083;SDS011;41958;52.416;13.428;2022-07-25T03:08:32;2.28;;;1.58;;
56083;SDS011;41958;52.416;13.428;2022-07-25T03:10:57;2.05;;;1.85;;
56083;SDS011;41958;52.416;13.428;2022-07-25T03:13:22;2.20;;;1.70;;
56083;SDS011;41958;52.416;13.428;2022-07-25T03:15:48;3.42;;;1.60;;
56083;SDS011;41958;52.416;13.428;2022-07-25T03:18:13;2.17;;;1.70;;
56083;SDS011;41958;52.416;13.428;2022-07-25T03:20:38;1.90;;;1.30;;
56083;SDS011;41958;52.416;13.428;2022-07-25T03:23:03;3.42;;;1.70;;
56083;SDS011;41958;52.416;13.428;2022-07-25T03:25:29;2.13;;;1.85;;
56083;SDS011;41958;52.416;13.428;2022-07-25T03:27:54;3.75;;;1.85;;
56083;SDS011;41958;52.416;13.428;2022-07-25T03:30:20;3.20;;;1.60;;
56083;SDS011;41958;52.416;13.428;2022-07-25T03:32:45;3.00;;;1.60;;
56083;SDS011;41958;52.416;13.428;2022-07-25T03:35:11;1.90;;;1.52;;
56083;SDS011;41958;52.416;13.428;2022-07-25T03:37:36;4.20;;;1.70;;
56083;SDS011;41958;52.416;13.428;2022-07-25T03:40:02;1.92;;;1.80;;
56083;SDS011;41958;52.416;13.428;2022-07-25T03:42:28;2.63;;;1.75;;
56083;SDS011;41958;52.416;13.428;2022-07-25T03:44:53;1.98;;;1.55;;
56083;SDS011;41958;52.416;13.428;2022-07-25T03:47:19;3.55;;;1.55;;
56083;SDS011;41958;52.416;13.428;2022-07-25T03:49:44;2.03;;;1.83;;
56083;SDS011;41958;52.416;13.428;2022-07-25T03:52:09;2.40;;;1.65;;
56083;SDS011;41958;52.416;13.428;2022-07-25T03:54:34;1.70;;;1.52;;
56083;SDS011;41958;52.416;13.428;2022-07-25T03:57:00;1.63;;;1.52;;
56083;SDS011;41958;52.416;13.428;2022-07-25T03:59:25;1.88;;;1.67;;
56083;SDS011;41958;52.416;13.428;2022-07-25T04:01:50;2.08;;;1.50;;
56083;SDS011;41958;52.416;13.428;2022-07-25T04:04:16;1.85;;;1.20;;
56083;SDS011;41958;52.416;13.428;2022-07-25T04:06:43;1.75;;;1.52;;
56083;SDS011;41958;52.416;13.428;2022-07-25T04:09:09;2.65;;;1.60;;
56083;SDS011;41958;52.416;13.428;2022-07-25T04:11:35;1.98;;;1.45;;
56083;SDS011;41958;52.416;13.428;2022-07-25T04:14:02;2.20;;;1.58;;
56083;SDS011;41958;52.416;13.428;2022-07-25T04:16:28;3.92;;;1.45;;
56083;SDS011;41958;52.416;13.428;2022-07-25T04:18:53;2.25;;;1.42;;
56083;SDS011;41958;52.416;13.428;2022-07-25T04:21:19;1.52;;;1.40;;
56083;SDS011;41958;52.416;13.428;2022-07-25T04:23:44;2.22;;;1.70;;
56083;SDS011;41958;52.416;13.428;2022-07-25T04:26:09;1.75;;;1.65;;
56083;SDS011;41958;52.416;13.428;2022-07-25T04:28:35;2.63;;;1.85;;
56083;SDS011;41958;52.416;13.428;2022-07-25T04:31:00;1.40;;;1.30;;
56083;SDS011;41958;52.416;13.428;2022-07-25T04:33:25;2.63;;;1.70;;
56083;SDS011;41958;52.416;13.428;2022-07-25T04:35:51;1.90;;;1.35;;
56083;SDS011;41958;52.416;13.428;2022-07-25T04:38:16;2.47;;;1.50;;
56083;SDS011;41958;52.416;13.428;2022-07-25T04:40:42;1.50;;;1.40;;
56083;SDS011;41958;52.416;13.428;2022-07-25T04:43:08;2.13;;;1.80;;
56083;SDS011;41958;52.416;13.428;2022-07-25T04:45:33;3.95;;;1.50;;
56083;SDS011;41958;52.416;13.428;2022-07-25T04:47:59;1.70;;;1.60;;
56083;SDS011;41958;52.416;13.428;2022-07-25T04:50:25;3.03;;;1.75;;
56083;SDS011;41958;52.416;13.428;2022-07-25T04:52:51;4.88;;;1.92;;
56083;SDS011;41958;52.416;13.428;2022-07-25T04:55:16;2.72;;;1.65;;
56083;SDS011;41958;52.416;13.428;2022-07-25T04:57:42;3.45;;;1.60;;
56083;SDS011;41958;52.416;13.428;2022-07-25T05:00:08;1.83;;;1.40;;
56083;SDS011;41958;52.416;13.428;2022-07-25T05:02:34;3.47;;;1.48;;
56083;SDS011;41958;52.416;13.428;2022-07-25T05:05:00;2.67;;;1.65;;
56083;SDS011;41958;52.416;13.428;2022-07-25T05:07:25;2.03;;;1.45;;
56083;SDS011;41958;52.416;13.428;2022-07-25T05:09:51;2.22;;;1.40;;
56083;SDS011;41958;52.416;13.428;2022-07-25T05:12:16;2.53;;;1.65;;
56083;SDS011;41958;52.416;13.428;2022-07-25T05:14:41;2.78;;;1.80;;
56083;SDS011;41958;52.416;13.428;2022-07-25T05:17:07;1.92;;;1.80;;
56083;SDS011;41958;52.416;13.428;2022-07-25T05:19:32;1.50;;;1.40;;
56083;SDS011;41958;52.416;13.428;2022-07-25T05:21:57;2.72;;;1.60;;
56083;SDS011;41958;52.416;13.428;2022-07-25T05:24:22;2.10;;;1.73;;
56083;SDS011;41958;52.416;13.428;2022-07-25T05:26:48;2.88;;;1.45;;
56083;SDS011;41958;52.416;13.428;2022-07-25T05:29:14;2.28;;;1.92;;
56083;SDS011;41958;52.416;13.428;2022-07-25T05:31:39;4.18;;;1.85;;
56083;SDS011;41958;52.416;13.428;2022-07-25T05:34:05;2.53;;;1.90;;
56083;SDS011;41958;52.416;13.428;2022-07-25T05:36:30;2.92;;;1.98;;
56083;SDS011;41958;52.416;13.428;2022-07-25T05:38:55;1.80;;;1.30;;
56083;SDS011;41958;52.416;13.428;2022-07-25T05:41:21;1.90;;;1.80;;
56083;SDS011;41958;52.416;13.428;2022-07-25T05:43:46;2.35;;;1.85;;
56083;SDS011;41958;52.416;13.428;2022-07-25T05:46:13;3.25;;;1.90;;
56083;SDS011;41958;52.416;13.428;2022-07-25T05:48:39;5.97;;;2.13;;
56083;SDS011;41958;52.416;13.428;2022-07-25T05:51:04;2.03;;;1.88;;
56083;SDS011;41958;52.416;13.428;2022-07-25T05:53:30;1.85;;;1.75;;
56083;SDS011;41958;52.416;13.428;2022-07-25T05:55:55;5.53;;;1.80;;
56083;SDS011;41958;52.416;13.428;2022-07-25T05:58:20;2.40;;;2.00;;
56083;SDS011;41958;52.416;13.428;2022-07-25T06:00:46;1.70;;;1.60;;
56083;SDS011;41958;52.416;13.428;2022-07-25T06:03:11;1.38;;;1.38;;
56083;SDS011;41958;52.416;13.428;2022-07-25T06:05:36;2.05;;;1.90;;
56083;SDS011;41958;52.416;13.428;2022-07-25T06:08:01;2.20;;;2.00;;
56083;SDS011;41958;52.416;13.428;2022-07-25T06:10:27;2.75;;;1.88;;
56083;SDS011;41958;52.416;13.428;2022-07-25T06:12:52;4.00;;;2.10;;
56083;SDS011;41958;52.416;13.428;2022-07-25T06:15:17;5.25;;;2.55;;
56083;SDS011;41958;52.416;13.428;2022-07-25T06:17:42;2.55;;;2.22;;
56083;SDS011;41958;52.416;13.428;2022-07-25T06:20:08;3.97;;;2.50;;
56083;SDS011;41958;52.416;13.428;2022-07-25T06:22:33;2.17;;;2.00;;
56083;SDS011;41958;52.416;13.428;2022-07-25T06:25:00;3.42;;;2.50;;
56083;SDS011;41958;52.416;13.428;2022-07-25T06:27:26;2.72;;;2.50;;
56083;SDS011;41958;52.416;13.428;2022-07-25T06:29:51;3.33;;;2.35;;
56083;SDS011;41958;52.416;13.428;2022-07-25T06:32:16;2.60;;;2.38;;
56083;SDS011;41958;52.416;13.428;2022-07-25T06:34:42;3.53;;;2.45;;
56083;SDS011;41958;52.416;13.428;2022-07-25T06:37:07;5.82;;;2.78;;
56083;SDS011;41958;52.416;13.428;2022-07-25T06:39:33;2.28;;;2.08;;
56083;SDS011;41958;52.416;13.428;2022-07-25T06:41:58;4.03;;;2.50;;
56083;SDS011;41958;52.416;13.428;2022-07-25T06:44:24;3.22;;;2.67;;
56083;SDS011;41958;52.416;13.428;2022-07-25T06:46:50;3.13;;;2.85;;
56083;SDS011;41958;52.416;13.428;2022-07-25T06:49:15;3.42;;;2.97;;
56083;SDS011;41958;52.416;13.428;2022-07-25T06:51:40;4.57;;;2.63;;
56083;SDS011;41958;52.416;13.428;2022-07-25T06:54:06;3.88;;;2.92;;
56083;SDS011;41958;52.416;13.428;2022-07-25T06:56:31;5.78;;;3.03;;
56083;SDS011;41958;52.416;13.428;2022-07-25T06:58:57;3.40;;;2.90;;
56083;SDS011;41958;52.416;13.428;2022-07-25T07:01:22;5.22;;;3.20;;
56083;SDS011;41958;52.416;13.428;2022-07-25T07:03:48;2.80;;;2.60;;
56083;SDS011;41958;52.416;13.428;2022-07-25T07:06:13;3.58;;;3.25;;
56083;SDS011;41958;52.416;13.428;2022-07-25T07:08:38;4.55;;;2.97;;
56083;SDS011;41958;52.416;13.428;2022-07-25T07:11:04;3.97;;;2.95;;
56083;SDS011;41958;52.416;13.428;2022-07-25T07:13:30;5.75;;;3.45;;
56083;SDS011;41958;52.416;13.428;2022-07-25T07:15:55;6.38;;;3.30;;
56083;SDS011;41958;52.416;13.428;2022-07-25T07:18:20;7.05;;;3.25;;
56083;SDS011;41958;52.416;13.428;2022-07-25T07:20:46;8.50;;;3.95;;
56083;SDS011;41958;52.416;13.428;2022-07-25T07:23:12;4.47;;;3.47;;
56083;SDS011;41958;52.416;13.428;2022-07-25T07:25:38;5.40;;;3.70;;
56083;SDS011;41958;52.416;13.428;2022-07-25T07:28:03;5.05;;;3.50;;
56083;SDS011;41958;52.416;13.428;2022-07-25T07:30:30;6.90;;;3.45;;
56083;SDS011;41958;52.416;13.428;2022-07-25T07:32:56;8.48;;;3.90;;
56083;SDS011;41958;52.416;13.428;2022-07-25T07:35:21;4.10;;;3.72;;
56083;SDS011;41958;52.416;13.428;2022-07-25T07:37:46;4.53;;;3.78;;
56083;SDS011;41958;52.416;13.428;2022-07-25T07:40:12;4.20;;;3.20;;
56083;SDS011;41958;52.416;13.428;2022-07-25T07:42:39;4.20;;;3.80;;
56083;SDS011;41958;52.416;13.428;2022-07-25T07:47:37;5.53;;;4.10;;
56083;SDS011;41958;52.416;13.428;2022-07-25T07:50:03;4.50;;;4.10;;
56083;SDS011;41958;52.416;13.428;2022-07-25T07:52:28;4.07;;;3.78;;
56083;SDS011;41958;52.416;13.428;2022-07-25T07:54:54;4.20;;;3.50;;
56083;SDS011;41958;52.416;13.428;2022-07-25T08:00:03;4.85;;;3.70;;
56083;SDS011;41958;52.416;13.428;2022-07-25T08:02:30;7.18;;;4.35;;
56083;SDS011;41958;52.416;13.428;2022-07-25T08:04:56;6.55;;;4.20;;
56083;SDS011;41958;52.416;13.428;2022-07-25T08:07:21;4.82;;;3.65;;
56083;SDS011;41958;52.416;13.428;2022-07-25T08:09:47;6.18;;;4.40;;
56083;SDS011;41958;52.416;13.428;2022-07-25T08:12:12;4.57;;;3.80;;
56083;SDS011;41958;52.416;13.428;2022-07-25T08:14:37;7.38;;;3.90;;
56083;SDS011;41958;52.416;13.428;2022-07-25T08:17:03;7.87;;;4.07;;
56083;SDS011;41958;52.416;13.428;2022-07-25T08:19:28;6.03;;;4.00;;
56083;SDS011;41958;52.416;13.428;2022-07-25T08:21:53;6.93;;;4.80;;
56083;SDS011;41958;52.416;13.428;2022-07-25T08:24:18;7.90;;;4.53;;
56083;SDS011;41958;52.416;13.428;2022-07-25T08:26:44;5.87;;;4.83;;
56083;SDS011;41958;52.416;13.428;2022-07-25T08:29:09;7.75;;;5.10;;
56083;SDS011;41958;52.416;13.428;2022-07-25T08:31:34;5.53;;;5.13;;
56083;SDS011;41958;52.416;13.428;2022-07-25T08:33:59;6.10;;;4.87;;
56083;SDS011;41958;52.416;13.428;2022-07-25T08:36:25;6.50;;;4.83;;
56083;SDS011;41958;52.416;13.428;2022-07-25T08:38:50;5.53;;;5.10;;
56083;SDS011;41958;52.416;13.428;2022-07-25T08:41:15;7.97;;;5.87;;
56083;SDS011;41958;52.416;13.428;2022-07-25T08:43:40;8.63;;;5.53;;
56083;SDS011;41958;52.416;13.428;2022-07-25T08:46:07;5.45;;;4.95;;
56083;SDS011;41958;52.416;13.428;2022-07-25T08:48:32;7.32;;;5.22;;
56083;SDS011;41958;52.416;13.428;2022-07-25T08:50:58;6.90;;;5.68;;
56083;SDS011;41958;52.416;13.428;2022-07-25T08:53:24;6.25;;;5.65;;
56083;SDS011;41958;52.416;13.428;2022-07-25T08:55:50;5.90;;;5.40;;
56083;SDS011;41958;52.416;13.428;2022-07-25T08:58:16;6.32;;;5.72;;
56083;SDS011;41958;52.416;13.428;2022-07-25T09:00:42;6.22;;;5.55;;
56083;SDS011;41958;52.416;13.428;2022-07-25T09:03:08;5.95;;;5.38;;
56083;SDS011;41958;52.416;13.428;2022-07-25T09:05:34;8.32;;;5.32;;
56083;SDS011;41958;52.416;13.428;2022-07-25T09:10:31;6.40;;;5.80;;
56083;SDS011;41958;52.416;13.428;2022-07-25T09:15:26;8.70;;;6.03;;
56083;SDS011;41958;52.416;13.428;2022-07-25T09:17:56;8.40;;;5.60;;
56083;SDS011;41958;52.416;13.428;2022-07-25T09:20:22;8.90;;;5.80;;
56083;SDS011;41958;52.416;13.428;2022-07-25T09:22:48;5.78;;;5.18;;
56083;SDS011;41958;52.416;13.428;2022-07-25T09:25:20;5.87;;;5.37;;
56083;SDS011;41958;52.416;13.428;2022-07-25T09:27:49;6.60;;;6.00;;
56083;SDS011;41958;52.416;13.428;2022-07-25T09:30:15;6.35;;;5.35;;
56083;SDS011;41958;52.416;13.428;2022-07-25T09:32:40;6.90;;;5.80;;
56083;SDS011;41958;52.416;13.428;2022-07-25T09:35:06;5.88;;;5.38;;
56083;SDS011;41958;52.416;13.428;2022-07-25T09:37:31;6.32;;;5.75;;
56083;SDS011;41958;52.416;13.428;2022-07-25T09:39:56;7.13;;;5.23;;
56083;SDS011;41958;52.416;13.428;2022-07-25T09:42:26;8.95;;;6.22;;
56083;SDS011;41958;52.416;13.428;2022-07-25T09:45:35;8.40;;;6.38;;
56083;SDS011;41958;52.416;13.428;2022-07-25T09:47:54;5.88;;;5.32;;
56083;SDS011;41958;52.416;13.428;2022-07-25T09:50:21;7.35;;;5.75;;
56083;SDS011;41958;52.416;13.428;2022-07-25T09:52:49;7.20;;;6.00;;
56083;SDS011;41958;52.416;13.428;2022-07-25T09:55:16;6.50;;;5.82;;
56083;SDS011;41958;52.416;13.428;2022-07-25T09:57:43;6.03;;;5.43;;
56083;SDS011;41958;52.416;13.428;2022-07-25T10:00:13;6.47;;;5.97;;
56083;SDS011;41958;52.416;13.428;2022-07-25T10:02:42;6.15;;;5.55;;
56083;SDS011;41958;52.416;13.428;2022-07-25T10:08:15;6.80;;;6.05;;
56083;SDS011;41958;52.416;13.428;2022-07-25T10:10:42;6.80;;;5.90;;
56083;SDS011;41958;52.416;13.428;2022-07-25T10:13:08;7.90;;;6.07;;
56083;SDS011;41958;52.416;13.428;2022-07-25T10:15:43;7.18;;;6.47;;
56083;SDS011;41958;52.416;13.428;2022-07-25T10:18:14;9.77;;;6.05;;
56083;SDS011;41958;52.416;13.428;2022-07-25T10:20:43;7.43;;;6.28;;
56083;SDS011;41958;52.416;13.428;2022-07-25T10:23:42;7.07;;;6.30;;
56083;SDS011;41958;52.416;13.428;2022-07-25T10:26:13;8.52;;;6.35;;
56083;SDS011;41958;52.416;13.428;2022-07-25T10:28:46;6.38;;;5.85;;
56083;SDS011;41958;52.416;13.428;2022-07-25T10:33:39;7.10;;;6.38;;
56083;SDS011;41958;52.416;13.428;2022-07-25T10:36:06;6.80;;;6.10;;
56083;SDS011;41958;52.416;13.428;2022-07-25T10:38:31;6.63;;;6.07;;
56083;SDS011;41958;52.416;13.428;2022-07-25T10:40:59;6.72;;;6.07;;
56083;SDS011;41958;52.416;13.428;2022-07-25T10:43:25;6.43;;;5.93;;
56083;SDS011;41958;52.416;13.428;2022-07-25T10:46:00;7.05;;;6.35;;
56083;SDS011;41958;52.416;13.428;2022-07-25T10:48:26;7.25;;;6.55;;
56083;SDS011;41958;52.416;13.428;2022-07-25T10:51:04;6.88;;;6.28;;
56083;SDS011;41958;52.416;13.428;2022-07-25T10:53:42;7.10;;;6.40;;
56083;SDS011;41958;52.416;13.428;2022-07-25T10:56:11;6.57;;;5.97;;
56083;SDS011;41958;52.416;13.428;2022-07-25T11:01:22;6.95;;;6.30;;
56083;SDS011;41958;52.416;13.428;2022-07-25T11:03:59;7.70;;;6.47;;
56083;SDS011;41958;52.416;13.428;2022-07-25T11:09:24;6.40;;;5.90;;
56083;SDS011;41958;52.416;13.428;2022-07-25T11:11:52;6.93;;;6.38;;
56083;SDS011;41958;52.416;13.428;2022-07-25T11:14:20;6.25;;;5.65;;
56083;SDS011;41958;52.416;13.428;2022-07-25T11:16:47;6.63;;;5.90;;
56083;SDS011;41958;52.416;13.428;2022-07-25T11:19:25;6.40;;;5.80;;
56083;SDS011;41958;52.416;13.428;2022-07-25T11:21:54;7.22;;;6.50;;
56083;SDS011;41958;52.416;13.428;2022-07-25T11:24:32;6.35;;;5.85;;
56083;SDS011;41958;52.416;13.428;2022-07-25T11:27:20;6.22;;;5.63;;
56083;SDS011;41958;52.416;13.428;2022-07-25T11:29:53;6.80;;;5.95;;
56083;SDS011;41958;52.416;13.428;2022-07-25T11:32:36;6.28;;;5.68;;
56083;SDS011;41958;52.416;13.428;2022-07-25T11:35:03;6.25;;;5.70;;
56083;SDS011;41958;52.416;13.428;2022-07-25T11:37:31;7.88;;;5.78;;
56083;SDS011;41958;52.416;13.428;2022-07-25T11:39:59;8.80;;;5.57;;
56083;SDS011;41958;52.416;13.428;2022-07-25T11:42:24;6.55;;;5.53;;
56083;SDS011;41958;52.416;13.428;2022-07-25T11:44:51;8.68;;;6.22;;
56083;SDS011;41958;52.416;13.428;2022-07-25T11:47:30;6.72;;;6.10;;
56083;SDS011;41958;52.416;13.428;2022-07-25T11:49:57;8.20;;;5.90;;
56083;SDS011;41958;52.416;13.428;2022-07-25T11:52:31;8.95;;;5.75;;
56083;SDS011;41958;52.416;13.428;2022-07-25T11:54:59;8.13;;;5.95;;
56083;SDS011;41958;52.416;13.428;2022-07-25T11:57:27;7.28;;;6.38;;
56083;SDS011;41958;52.416;13.428;2022-07-25T11:59:53;7.13;;;6.20;;
56083;SDS011;41958;52.416;13.428;2022-07-25T12:02:20;6.43;;;5.82;;
56083;SDS011;41958;52.416;13.428;2022-07-25T12:04:53;6.38;;;5.78;;
56083;SDS011;41958;52.416;13.428;2022-07-25T12:07:39;6.70;;;5.97;;
56083;SDS011;41958;52.416;13.428;2022-07-25T12:10:10;7.85;;;5.40;;
56083;SDS011;41958;52.416;13.428;2022-07-25T12:12:50;6.65;;;5.95;;
56083;SDS011;41958;52.416;13.428;2022-07-25T12:15:24;6.80;;;5.95;;
56083;SDS011;41958;52.416;13.428;2022-07-25T12:17:52;6.70;;;5.68;;
56083;SDS011;41958;52.416;13.428;2022-07-25T12:20:21;6.50;;;5.85;;
56083;SDS011;41958;52.416;13.428;2022-07-25T12:22:48;6.35;;;5.65;;
56083;SDS011;41958;52.416;13.428;2022-07-25T12:25:15;6.05;;;5.55;;
56083;SDS011;41958;52.416;13.428;2022-07-25T12:27:40;7.60;;;5.97;;
56083;SDS011;41958;52.416;13.428;2022-07-25T12:30:06;6.15;;;5.68;;
56083;SDS011;41958;52.416;13.428;2022-07-25T12:32:33;6.10;;;5.60;;
56083;SDS011;41958;52.416;13.428;2022-07-25T12:34:58;6.40;;;5.65;;
56083;SDS011;41958;52.416;13.428;2022-07-25T12:37:24;5.65;;;5.05;;
56083;SDS011;41958;52.416;13.428;2022-07-25T12:39:50;8.25;;;5.40;;
56083;SDS011;41958;52.416;13.428;2022-07-25T12:42:16;6.10;;;5.60;;
56083;SDS011;41958;52.416;13.428;2022-07-25T12:44:41;6.23;;;5.73;;
56083;SDS011;41958;52.416;13.428;2022-07-25T12:47:06;6.27;;;5.67;;
56083;SDS011;41958;52.416;13.428;2022-07-25T12:49:32;8.20;;;5.50;;
56083;SDS011;41958;52.416;13.428;2022-07-25T12:51:57;6.40;;;5.80;;
56083;SDS011;41958;52.416;13.428;2022-07-25T12:54:22;6.13;;;5.57;;
56083;SDS011;41958;52.416;13.428;2022-07-25T12:56:47;7.97;;;5.47;;
56083;SDS011;41958;52.416;13.428;2022-07-25T12:59:13;6.00;;;5.45;;
56083;SDS011;41958;52.416;13.428;2022-07-25T13:01:38;5.95;;;5.45;;
56083;SDS011;41958;52.416;13.428;2022-07-25T13:04:03;5.80;;;5.30;;
56083;SDS011;41958;52.416;13.428;2022-07-25T13:06:31;7.93;;;5.65;;
56083;SDS011;41958;52.416;13.428;2022-07-25T13:08:57;6.18;;;5.57;;
56083;SDS011;41958;52.416;13.428;2022-07-25T13:11:22;6.18;;;5.68;;
56083;SDS011;41958;52.416;13.428;2022-07-25T13:13:47;6.33;;;5.30;;
56083;SDS011;41958;52.416;13.428;2022-07-25T13:16:13;6.03;;;5.53;;
56083;SDS011;41958;52.416;13.428;2022-07-25T13:18:38;5.83;;;5.33;;
56083;SDS011;41958;52.416;13.428;2022-07-25T13:21:03;5.70;;;5.17;;
56083;SDS011;41958;52.416;13.428;2022-07-25T13:23:29;5.85;;;4.97;;
56083;SDS011;41958;52.416;13.428;2022-07-25T13:25:54;5.90;;;5.20;;
56083;SDS011;41958;52.416;13.428;2022-07-25T13:28:19;6.30;;;5.65;;
56083;SDS011;41958;52.416;13.428;2022-07-25T13:30:45;10.87;;;6.20;;
56083;SDS011;41958;52.416;13.428;2022-07-25T13:33:10;5.93;;;5.30;;
56083;SDS011;41958;52.416;13.428;2022-07-25T13:35:35;6.07;;;5.57;;
56083;SDS011;41958;52.416;13.428;2022-07-25T13:38:02;7.90;;;5.65;;
56083;SDS011;41958;52.416;13.428;2022-07-25T13:40:27;6.20;;;5.60;;
56083;SDS011;41958;52.416;13.428;2022-07-25T13:42:52;10.37;;;5.83;;
56083;SDS011;41958;52.416;13.428;2022-07-25T13:45:17;6.33;;;5.67;;
56083;SDS011;41958;52.416;13.428;2022-07-25T13:47:43;6.07;;;5.57;;
56083;SDS011;41958;52.416;13.428;2022-07-25T13:50:08;6.37;;;5.27;;
56083;SDS011;41958;52.416;13.428;2022-07-25T13:52:33;5.75;;;5.32;;
56083;SDS011;41958;52.416;13.428;2022-07-25T13:54:59;5.70;;;5.20;;
56083;SDS011;41958;52.416;13.428;2022-07-25T13:57:24;6.00;;;5.50;;
56083;SDS011;41958;52.416;13.428;2022-07-25T13:59:49;5.70;;;5.20;;
56083;SDS011;41958;52.416;13.428;2022-07-25T14:02:14;5.47;;;5.00;;
56083;SDS011;41958;52.416;13.428;2022-07-25T14:04:40;6.10;;;5.60;;
56083;SDS011;41958;52.416;13.428;2022-07-25T14:07:05;6.28;;;5.47;;
56083;SDS011;41958;52.416;13.428;2022-07-25T14:09:30;11.77;;;6.00;;
56083;SDS011;41958;52.416;13.428;2022-07-25T14:11:56;5.82;;;5.30;;
56083;SDS011;41958;52.416;13.428;2022-07-25T14:14:21;5.17;;;4.77;;
56083;SDS011;41958;52.416;13.428;2022-07-25T14:16:46;6.03;;;5.33;;
56083;SDS011;41958;52.416;13.428;2022-07-25T14:19:12;6.88;;;5.30;;
56083;SDS011;41958;52.416;13.428;2022-07-25T14:21:39;6.15;;;5.65;;
56083;SDS011;41958;52.416;13.428;2022-07-25T14:24:04;6.37;;;5.77;;
56083;SDS011;41958;52.416;13.428;2022-07-25T14:26:29;6.00;;;5.50;;
56083;SDS011;41958;52.416;13.428;2022-07-25T14:28:55;6.03;;;5.45;;
56083;SDS011;41958;52.416;13.428;2022-07-25T14:31:20;6.25;;;5.65;;
56083;SDS011;41958;52.416;13.428;2022-07-25T14:33:46;6.13;;;5.63;;
56083;SDS011;41958;52.416;13.428;2022-07-25T14:36:11;6.18;;;5.10;;
56083;SDS011;41958;52.416;13.428;2022-07-25T14:38:37;5.20;;;4.70;;
56083;SDS011;41958;52.416;13.428;2022-07-25T14:41:02;6.68;;;5.28;;
56083;SDS011;41958;52.416;13.428;2022-07-25T14:43:28;5.65;;;4.88;;
56083;SDS011;41958;52.416;13.428;2022-07-25T14:45:53;8.70;;;6.80;;
56083;SDS011;41958;52.416;13.428;2022-07-25T14:48:19;6.07;;;5.27;;
56083;SDS011;41958;52.416;13.428;2022-07-25T14:50:44;5.75;;;5.25;;